createdAt,value
2022-08-05T00:00:54.055Z,100638.17
2022-08-05T00:03:20.875Z,100650.94
2022-08-05T00:06:05.646Z,100641.91
2022-08-05T00:08:36.580Z,100642.30
2022-08-05T00:11:20.544Z,100650.55
2022-08-05T00:13:55.857Z,100653.48
2022-08-05T00:16:36.453Z,100651.98
2022-08-05T00:19:10.243Z,100657.42
2022-08-05T00:21:37.711Z,100655.30
2022-08-05T00:24:10.363Z,100659.07
2022-08-05T00:26:38.238Z,100666.59
2022-08-05T00:29:05.637Z,100667.85
2022-08-05T00:31:53.862Z,100673.23
2022-08-05T00:34:54.217Z,100683.18
2022-08-05T00:37:13.257Z,100685.96
2022-08-05T00:39:58.641Z,100679.02
2022-08-05T00:42:34.300Z,100683.04
2022-08-05T00:45:02.337Z,100679.59
2022-08-05T00:47:31.617Z,100679.77
2022-08-05T00:50:17.083Z,100668.61
2022-08-05T00:52:45.535Z,100669.73
2022-08-05T00:55:14.040Z,100673.80
2022-08-05T00:57:58.371Z,100677.55
2022-08-05T01:00:28.675Z,100678.09
2022-08-05T01:02:56.816Z,100673.17
2022-08-05T01:05:24.210Z,100669.48
2022-08-05T01:08:30.624Z,100676.13
2022-08-05T01:11:22.495Z,100678.39
2022-08-05T01:14:08.856Z,100674.58
2022-08-05T01:16:52.166Z,100670.95
2022-08-05T01:19:30.131Z,100653.73
2022-08-05T01:22:24.106Z,100657.72
2022-08-05T01:24:51.537Z,100661.96
2022-08-05T01:27:56.363Z,100658.31
2022-08-05T01:30:33.498Z,100660.35
2022-08-05T01:33:06.206Z,100662.71
2022-08-05T01:35:50.707Z,100661.82
2022-08-05T01:38:24.899Z,100664.11
2022-08-05T01:40:58.893Z,100674.41
2022-08-05T01:43:28.128Z,100676.13
2022-08-05T01:45:57.153Z,100667.92
2022-08-05T01:48:27.314Z,100657.59
2022-08-05T01:50:56.802Z,100664.14
2022-08-05T01:53:54.724Z,100680.05
2022-08-05T01:58:10.630Z,100685.44
2022-08-05T01:59:04.913Z,100682.29
2022-08-05T02:01:37.977Z,100677.36
2022-08-05T02:04:10.354Z,100674.05
2022-08-05T02:06:39.425Z,100673.62
2022-08-05T02:09:07.568Z,100662.98
2022-08-05T02:12:01.450Z,100647.85
2022-08-05T02:14:32.608Z,100631.66
2022-08-05T02:17:16.963Z,100642.48
2022-08-05T02:20:01.882Z,100656.48
2022-08-05T02:22:31.640Z,100666.34
2022-08-05T02:25:35.985Z,100670.95
2022-08-05T02:28:28.807Z,100668.61
2022-08-05T02:31:04.554Z,100653.15
2022-08-05T02:33:38.791Z,100642.19
2022-08-05T02:36:13.699Z,100605.52
2022-08-05T02:38:44.751Z,100562.74
2022-08-05T02:41:22.748Z,100588.16
2022-08-05T02:44:06.241Z,100599.27
2022-08-05T02:46:53.206Z,100573.86
2022-08-05T02:49:36.400Z,100610.96
2022-08-05T02:52:09.786Z,100659.74
2022-08-05T02:54:41.142Z,100672.00
2022-08-05T02:58:09.832Z,100666.52
2022-08-05T02:59:59.345Z,100627.64
2022-08-05T03:02:33.882Z,100554.34
2022-08-05T03:05:02.057Z,100526.73
2022-08-05T03:08:00.271Z,100549.25
2022-08-05T03:10:24.509Z,100554.84
2022-08-05T03:12:54.002Z,100549.90
2022-08-05T03:15:23.407Z,100552.61
2022-08-05T03:17:54.048Z,100557.80
2022-08-05T03:20:24.319Z,100579.81
2022-08-05T03:22:52.414Z,100584.73
2022-08-05T03:25:32.586Z,100585.42
2022-08-05T03:28:02.919Z,100585.73
2022-08-05T03:30:34.232Z,100591.29
2022-08-05T03:33:06.321Z,100607.27
2022-08-05T03:35:41.241Z,100621.87
2022-08-05T03:38:11.178Z,100625.49
2022-08-05T03:40:47.243Z,100624.56
2022-08-05T03:44:08.041Z,100636.18
2022-08-05T03:46:08.491Z,100646.97
2022-08-05T03:48:36.830Z,100647.17
2022-08-05T03:52:38.510Z,100635.95
2022-08-05T03:55:06.751Z,100632.02
2022-08-05T03:57:16.425Z,100640.04
2022-08-05T03:59:54.554Z,100634.60
2022-08-05T04:02:38.577Z,100628.00
2022-08-05T04:05:13.056Z,100634.21
2022-08-05T04:07:52.867Z,100627.97
2022-08-05T04:10:27.639Z,100625.05
2022-08-05T04:12:56.358Z,100621.10
2022-08-05T04:15:27.833Z,100621.05
2022-08-05T04:18:03.730Z,100619.14
2022-08-05T04:20:33.996Z,100620.06
2022-08-05T04:23:01.187Z,100623.56
2022-08-05T04:25:56.789Z,100635.48
2022-08-05T04:28:15.178Z,100646.50
2022-08-05T04:30:44.863Z,100648.01
2022-08-05T04:33:11.782Z,100650.86
2022-08-05T04:36:09.455Z,100653.54
2022-08-05T04:38:39.555Z,100650.02
2022-08-05T04:41:07.356Z,100650.17
2022-08-05T04:43:36.098Z,100647.52
2022-08-05T04:46:07.200Z,100649.44
2022-08-05T04:48:33.870Z,100645.41
2022-08-05T04:51:03.513Z,100639.96
2022-08-05T04:53:38.899Z,100642.00
2022-08-05T04:56:32.659Z,100646.44
2022-08-05T04:58:56.460Z,100658.67
2022-08-05T05:01:33.660Z,100655.58
2022-08-05T05:04:10.429Z,100651.56
2022-08-05T05:06:44.308Z,100660.89
2022-08-05T05:09:14.083Z,100665.13
2022-08-05T05:11:53.261Z,100662.26
2022-08-05T05:14:27.810Z,100662.59
2022-08-05T05:16:59.879Z,100655.06
2022-08-05T05:19:36.445Z,100655.25
2022-08-05T05:22:24.533Z,100652.92
2022-08-05T05:24:59.993Z,100644.61
2022-08-05T05:27:41.311Z,100641.40
2022-08-05T05:30:28.793Z,100645.80
2022-08-05T05:32:57.089Z,100655.09
2022-08-05T05:35:29.103Z,100661.59
2022-08-05T05:38:09.071Z,100664.09
2022-08-05T05:40:36.759Z,100662.63
2022-08-05T05:43:03.866Z,100663.25
2022-08-05T05:45:35.878Z,100661.91
2022-08-05T05:48:06.625Z,100658.73
2022-08-05T05:50:44.062Z,100665.02
2022-08-05T05:53:21.136Z,100680.52
2022-08-05T05:55:52.311Z,100685.20
2022-08-05T05:58:31.395Z,100686.11
2022-08-05T06:01:04.934Z,100689.70
2022-08-05T06:04:01.271Z,100691.68
2022-08-05T06:06:28.001Z,100689.02
2022-08-05T06:09:00.417Z,100689.71
2022-08-05T06:11:28.813Z,100695.36
2022-08-05T06:13:56.675Z,100699.54
2022-08-05T06:16:28.397Z,100707.90
2022-08-05T06:19:00.217Z,100729.73
2022-08-05T06:21:36.436Z,100765.05
2022-08-05T06:24:11.468Z,100808.73
2022-08-05T06:26:51.813Z,100843.48
2022-08-05T06:29:25.008Z,100830.48
2022-08-05T06:32:25.465Z,100843.89
2022-08-05T06:34:56.326Z,100869.64
2022-08-05T06:37:56.788Z,100840.19
2022-08-05T06:40:12.907Z,100765.48
2022-08-05T06:42:40.927Z,100727.40
2022-08-05T06:45:09.361Z,100720.98
2022-08-05T06:48:36.081Z,100709.68
2022-08-05T06:50:26.556Z,100707.39
2022-08-05T06:53:03.585Z,100698.20
2022-08-05T06:55:38.495Z,100680.39
2022-08-05T06:58:30.098Z,100675.84
2022-08-05T07:00:59.641Z,100678.54
2022-08-05T07:03:32.960Z,100683.41
2022-08-05T07:06:06.126Z,100681.70
2022-08-05T07:08:42.798Z,100669.84
2022-08-05T07:11:15.244Z,100666.70
2022-08-05T07:14:20.379Z,100662.46
2022-08-05T07:17:58.677Z,100662.28
2022-08-05T07:20:31.536Z,100660.00
2022-08-05T07:22:35.059Z,100661.38
2022-08-05T07:25:22.130Z,100670.08
2022-08-05T07:27:58.346Z,100678.56
2022-08-05T07:30:32.920Z,100677.95
2022-08-05T07:33:05.236Z,100682.18
2022-08-05T07:35:55.786Z,100690.09
2022-08-05T07:38:33.288Z,100692.96
2022-08-05T07:42:07.246Z,100695.66
2022-08-05T07:44:02.521Z,100694.34
2022-08-05T07:46:32.375Z,100696.04
2022-08-05T07:49:05.783Z,100697.36
2022-08-05T07:51:37.399Z,100697.34
2022-08-05T07:54:10.076Z,100696.27
2022-08-05T07:57:02.421Z,100685.38
2022-08-05T07:59:38.825Z,100677.38
2022-08-05T08:02:15.601Z,100679.93
2022-08-05T08:04:45.906Z,100688.64
2022-08-05T08:07:13.701Z,100692.77
2022-08-05T08:09:40.820Z,100701.10
2022-08-05T08:12:35.057Z,100698.45
2022-08-05T08:14:55.025Z,100695.96
2022-08-05T08:17:22.250Z,100697.40
2022-08-05T08:20:43.976Z,100697.00
2022-08-05T08:22:37.581Z,100683.71
2022-08-05T08:25:15.671Z,100669.90
2022-08-05T08:27:47.431Z,100669.46
2022-08-05T08:30:29.766Z,100674.12
2022-08-05T08:33:08.216Z,100675.54
2022-08-05T08:35:41.522Z,100676.85
2022-08-05T08:38:32.245Z,100678.02
2022-08-05T08:41:16.153Z,100693.15
2022-08-05T08:45:18.522Z,100697.90
2022-08-05T08:46:34.491Z,100720.95
2022-08-05T08:50:06.025Z,100737.25
2022-08-05T08:52:13.068Z,100735.30
2022-08-05T08:54:43.041Z,100734.50
2022-08-05T08:57:13.539Z,100733.82
2022-08-05T08:59:47.032Z,100739.56
2022-08-05T09:02:16.633Z,100737.85
2022-08-05T09:04:58.280Z,100740.55
2022-08-05T09:07:39.825Z,100754.55
2022-08-05T09:10:20.564Z,100764.77
2022-08-05T09:12:51.008Z,100766.13
2022-08-05T09:15:20.378Z,100765.96
2022-08-05T09:17:49.631Z,100758.21
2022-08-05T09:20:36.458Z,100766.38
2022-08-05T09:23:18.754Z,100779.21
2022-08-05T09:26:03.068Z,100779.77
2022-08-05T09:28:33.422Z,100771.42
2022-08-05T09:31:44.049Z,100769.95
2022-08-05T09:34:11.646Z,100772.67
2022-08-05T09:36:54.930Z,100778.23
2022-08-05T09:39:41.829Z,100779.80
2022-08-05T09:42:17.539Z,100772.13
2022-08-05T09:44:52.615Z,100775.58
2022-08-05T09:47:46.606Z,100784.71
2022-08-05T09:50:38.435Z,100787.63
2022-08-05T09:53:05.919Z,100787.48
2022-08-05T09:55:56.716Z,100794.45
2022-08-05T09:58:24.172Z,100794.87
2022-08-05T10:00:55.798Z,100795.06
2022-08-05T10:03:24.911Z,100795.48
2022-08-05T10:06:14.683Z,100793.70
2022-08-05T10:08:43.118Z,100792.61
2022-08-05T10:11:18.340Z,100797.22
2022-08-05T10:13:49.112Z,100804.70
2022-08-05T10:16:41.832Z,100804.45
2022-08-05T10:19:23.546Z,100797.29
2022-08-05T10:22:02.068Z,100798.09
2022-08-05T10:24:33.034Z,100796.32
2022-08-05T10:27:01.428Z,100800.50
2022-08-05T10:30:41.080Z,100801.98
2022-08-05T10:33:00.862Z,100804.80
2022-08-05T10:35:04.811Z,100803.03
2022-08-05T10:37:44.444Z,100799.81
2022-08-05T10:40:38.963Z,100801.64
2022-08-05T10:43:30.828Z,100798.11
2022-08-05T10:46:07.114Z,100804.73
2022-08-05T10:48:52.612Z,100827.73
2022-08-05T10:51:28.486Z,100896.36
2022-08-05T10:53:58.553Z,100901.16
2022-08-05T10:56:30.269Z,100859.02
2022-08-05T10:59:12.201Z,100857.45
2022-08-05T11:01:55.522Z,100886.16
2022-08-05T11:04:36.490Z,100879.88
2022-08-05T11:07:06.842Z,100879.68
2022-08-05T11:09:46.655Z,100886.76
2022-08-05T11:12:41.233Z,100882.64
2022-08-05T11:15:19.237Z,100887.43
2022-08-05T11:17:59.101Z,100887.35
2022-08-05T11:20:43.651Z,100891.94
2022-08-05T11:24:04.181Z,100895.18
2022-08-05T11:26:29.133Z,100897.44
2022-08-05T11:29:11.490Z,100901.60
2022-08-05T11:31:54.101Z,100899.19
2022-08-05T11:34:51.787Z,100891.23
2022-08-05T11:38:30.911Z,100885.92
2022-08-05T11:41:13.967Z,100883.77
2022-08-05T11:44:04.682Z,100884.58
2022-08-05T11:47:09.283Z,100889.89
2022-08-05T11:49:26.635Z,100884.66
2022-08-05T11:51:54.850Z,100888.28
2022-08-05T11:54:32.775Z,100888.05
2022-08-05T11:57:08.482Z,100893.40
2022-08-05T11:59:50.973Z,100900.38
2022-08-05T12:02:23.827Z,100910.27
2022-08-05T12:04:59.622Z,100910.52
2022-08-05T12:08:03.457Z,100920.15
2022-08-05T12:10:22.646Z,100932.73
2022-08-05T12:12:58.410Z,100939.55
2022-08-05T12:15:37.794Z,100948.67
2022-08-05T12:18:11.001Z,100961.36
2022-08-05T12:20:41.358Z,100965.42
2022-08-05T12:23:09.934Z,100980.60
2022-08-05T12:25:53.833Z,100982.57
2022-08-05T12:28:37.918Z,100980.05
2022-08-05T12:31:08.694Z,100975.98
2022-08-05T12:33:37.057Z,100977.30
2022-08-05T12:36:09.599Z,100983.12
2022-08-05T12:38:41.329Z,100985.17
2022-08-05T12:41:16.408Z,100974.80
2022-08-05T12:43:57.639Z,100976.41
2022-08-05T12:46:31.443Z,100991.09
2022-08-05T12:49:11.994Z,100998.10
2022-08-05T12:52:14.199Z,101007.08
2022-08-05T12:54:47.649Z,101016.34
2022-08-05T12:57:17.428Z,101011.73
2022-08-05T13:01:58.320Z,101006.70
2022-08-05T13:02:42.346Z,100999.09
2022-08-05T13:05:15.308Z,101005.85
2022-08-05T13:07:59.517Z,101002.13
2022-08-05T13:10:28.630Z,100997.91
2022-08-05T13:12:58.021Z,101000.52
2022-08-05T13:15:42.173Z,101002.88
2022-08-05T13:18:20.909Z,101000.84
2022-08-05T13:20:49.970Z,101004.87
2022-08-05T13:23:22.075Z,101006.47
2022-08-05T13:25:58.979Z,101010.68
2022-08-05T13:28:28.214Z,101019.36
2022-08-05T13:30:57.108Z,101022.48
2022-08-05T13:34:24.034Z,101017.71
2022-08-05T13:36:14.477Z,101016.58
2022-08-05T13:38:42.256Z,101012.34
2022-08-05T13:41:11.506Z,101012.75
2022-08-05T13:43:45.266Z,101021.94
2022-08-05T13:46:43.670Z,101024.48
2022-08-05T13:49:13.519Z,101027.59
2022-08-05T13:51:46.254Z,101024.56
2022-08-05T13:54:16.160Z,101029.75
2022-08-05T13:56:50.867Z,101043.57
2022-08-05T13:59:24.040Z,101040.49
2022-08-05T14:01:58.038Z,101044.48
2022-08-05T14:04:49.574Z,101047.52
2022-08-05T14:07:25.822Z,101051.95
2022-08-05T14:10:08.453Z,101060.36
2022-08-05T14:12:36.267Z,101057.70
2022-08-05T14:16:04.017Z,101063.14
2022-08-05T14:17:51.205Z,101058.58
2022-08-05T14:20:27.347Z,101054.56
2022-08-05T14:22:54.726Z,101056.91
2022-08-05T14:25:28.264Z,101058.97
2022-08-05T14:27:56.104Z,101062.02
2022-08-05T14:30:26.695Z,101066.35
2022-08-05T14:32:55.354Z,101074.88
2022-08-05T14:35:23.866Z,101082.00
2022-08-05T14:38:04.575Z,101083.89
2022-08-05T14:40:31.689Z,101080.98
2022-08-05T14:43:01.869Z,101081.89
2022-08-05T14:45:29.568Z,101082.77
2022-08-05T14:48:02.948Z,101085.80
2022-08-05T14:50:31.751Z,101088.13
2022-08-05T14:53:00.260Z,101090.28
2022-08-05T14:55:38.610Z,101085.59
2022-08-05T14:58:11.870Z,101087.06
2022-08-05T15:00:59.651Z,101087.48
2022-08-05T15:03:33.208Z,101089.64
2022-08-05T15:06:07.673Z,101094.99
2022-08-05T15:08:59.886Z,101098.05
2022-08-05T15:11:51.209Z,101100.58
2022-08-05T15:14:33.425Z,101103.56
2022-08-05T15:17:03.775Z,101105.85
2022-08-05T15:19:31.575Z,101114.70
2022-08-05T15:22:01.395Z,101109.22
2022-08-05T15:24:29.146Z,101108.75
2022-08-05T15:26:57.113Z,101102.78
2022-08-05T15:29:30.046Z,101100.14
2022-08-05T15:32:03.096Z,101104.63
2022-08-05T15:34:33.847Z,101114.94
2022-08-05T15:37:06.522Z,101106.98
2022-08-05T15:40:58.832Z,101115.79
2022-08-05T15:42:54.770Z,101118.20
2022-08-05T15:45:15.060Z,101115.77
2022-08-05T15:47:43.649Z,101115.13
2022-08-05T15:50:15.141Z,101113.60
2022-08-05T15:52:53.013Z,101117.91
2022-08-05T15:55:24.488Z,101110.58
2022-08-05T15:57:52.197Z,101114.44
2022-08-05T16:00:26.502Z,101110.36
2022-08-05T16:03:10.332Z,101110.90
2022-08-05T16:06:00.704Z,101103.92
2022-08-05T16:08:30.713Z,101104.08
2022-08-05T16:10:58.367Z,101100.30
2022-08-05T16:13:34.042Z,101102.98
2022-08-05T16:16:06.266Z,101098.10
2022-08-05T16:18:33.298Z,101095.80
2022-08-05T16:23:53.864Z,101105.03
2022-08-05T16:26:26.627Z,101103.48
2022-08-05T16:28:54.474Z,101115.41
2022-08-05T16:31:24.228Z,101109.48
2022-08-05T16:33:53.609Z,101108.70
2022-08-05T16:36:23.838Z,101114.96
2022-08-05T16:38:54.979Z,101109.58
2022-08-05T16:42:15.014Z,101108.92
2022-08-05T16:44:11.462Z,101111.44
2022-08-05T16:46:41.133Z,101115.83
2022-08-05T16:49:09.980Z,101117.38
2022-08-05T16:51:42.726Z,101121.23
2022-08-05T16:54:27.193Z,101127.30
2022-08-05T16:56:57.242Z,101128.48
2022-08-05T16:59:24.604Z,101130.06
2022-08-05T17:01:56.241Z,101129.80
2022-08-05T17:04:28.190Z,101137.56
2022-08-05T17:07:01.845Z,101135.36
2022-08-05T17:09:57.647Z,101135.33
2022-08-05T17:12:22.490Z,101128.75
2022-08-05T17:15:11.698Z,101123.17
2022-08-05T17:18:02.069Z,101124.92
2022-08-05T17:20:32.757Z,101126.83
2022-08-05T17:23:01.141Z,101133.81
2022-08-05T17:25:34.044Z,101131.11
2022-08-05T17:28:37.246Z,101132.90
2022-08-05T17:31:24.067Z,101138.10
2022-08-05T17:33:58.283Z,101152.88
2022-08-05T17:36:32.846Z,101154.39
2022-08-05T17:39:02.483Z,101156.71
2022-08-05T17:42:19.766Z,101162.14
2022-08-05T17:44:19.422Z,101167.02
2022-08-05T17:46:59.304Z,101167.17
2022-08-05T17:49:28.339Z,101169.48
2022-08-05T17:52:15.615Z,101176.02
2022-08-05T17:54:42.651Z,101182.20
2022-08-05T17:57:12.278Z,101189.66
2022-08-05T17:59:42.461Z,101187.84
2022-08-05T18:02:13.680Z,101195.80
2022-08-05T18:04:51.449Z,101202.10
2022-08-05T18:07:23.128Z,101210.96
2022-08-05T18:09:59.848Z,101214.56
2022-08-05T18:12:27.885Z,101219.42
2022-08-05T18:14:58.549Z,101230.69
2022-08-05T18:18:01.260Z,101235.24
2022-08-05T18:20:16.134Z,101240.52
2022-08-05T18:22:54.206Z,101247.86
2022-08-05T18:25:22.152Z,101247.52
2022-08-05T18:27:52.267Z,101248.88
2022-08-05T18:30:19.860Z,101260.23
2022-08-05T18:32:53.306Z,101259.13
2022-08-05T18:35:49.752Z,101266.45
2022-08-05T18:38:09.383Z,101271.45
2022-08-05T18:41:56.462Z,101273.69
2022-08-05T18:43:26.439Z,101275.19
2022-08-05T18:45:58.802Z,101288.36
2022-08-05T18:48:30.369Z,101290.14
2022-08-05T18:52:04.148Z,101291.39
2022-08-05T18:54:11.606Z,101299.84
2022-08-05T18:56:51.197Z,101309.13
2022-08-05T18:59:42.778Z,101309.13
2022-08-05T19:02:18.456Z,101313.81
2022-08-05T19:05:02.949Z,101319.73
2022-08-05T19:07:49.412Z,101320.27
2022-08-05T19:10:27.913Z,101320.21
2022-08-05T19:12:56.534Z,101322.50
2022-08-05T19:15:57.869Z,101329.46
2022-08-05T19:18:13.629Z,101334.98
2022-08-05T19:20:49.025Z,101341.65
2022-08-05T19:24:04.501Z,101344.48
2022-08-05T19:26:08.518Z,101349.31
2022-08-05T19:28:43.957Z,101353.67
2022-08-05T19:31:13.292Z,101363.81
2022-08-05T19:33:48.722Z,101365.02
2022-08-05T19:36:26.317Z,101373.15
2022-08-05T19:39:01.171Z,101377.15
2022-08-05T19:42:06.351Z,101383.06
2022-08-05T19:45:07.409Z,101385.46
2022-08-05T19:48:01.633Z,101396.85
2022-08-05T19:54:17.741Z,101406.46
2022-08-05T19:58:19.614Z,101410.55
2022-08-05T20:00:41.040Z,101410.46
2022-08-05T20:04:15.085Z,101418.13
2022-08-05T20:09:30.535Z,101428.62
2022-08-05T20:12:27.429Z,101432.14
2022-08-05T20:17:58.302Z,101446.81
2022-08-05T20:20:36.221Z,101449.74
2022-08-05T20:26:17.169Z,101456.23
2022-08-05T20:29:27.427Z,101454.25
2022-08-05T20:31:58.403Z,101461.44
2022-08-05T20:34:42.235Z,101462.23
2022-08-05T20:37:24.112Z,101463.73
2022-08-05T20:40:00.923Z,101472.71
2022-08-05T20:42:28.726Z,101479.91
2022-08-05T20:44:59.032Z,101485.98
2022-08-05T20:48:16.480Z,101491.33
2022-08-05T20:51:10.919Z,101494.91
2022-08-05T20:53:40.938Z,101493.25
2022-08-05T20:56:09.647Z,101497.46
2022-08-05T20:58:37.491Z,101499.64
2022-08-05T21:01:11.346Z,101499.89
2022-08-05T21:03:40.949Z,101501.54
2022-08-05T21:06:27.966Z,101499.90
2022-08-05T21:08:56.528Z,101501.54
2022-08-05T21:12:07.280Z,101503.58
2022-08-05T21:14:10.874Z,101498.38
2022-08-05T21:16:39.817Z,101504.29
2022-08-05T21:19:07.084Z,101503.37
2022-08-05T21:21:39.145Z,101502.38
2022-08-05T21:24:13.574Z,101500.45
2022-08-05T21:26:46.062Z,101505.72
2022-08-05T21:29:20.219Z,101511.23
2022-08-05T21:31:51.960Z,101515.33
2022-08-05T21:34:20.734Z,101521.16
2022-08-05T21:36:49.289Z,101519.25
2022-08-05T21:39:17.013Z,101529.05
2022-08-05T21:42:02.061Z,101528.48
2022-08-05T21:44:30.476Z,101529.81
2022-08-05T21:46:58.563Z,101530.42
2022-08-05T21:49:59.367Z,101529.98
2022-08-05T21:52:28.123Z,101531.71
2022-08-05T21:54:56.961Z,101531.69
2022-08-05T21:57:32.645Z,101531.41
2022-08-05T22:00:06.336Z,101535.77
2022-08-05T22:02:34.665Z,101538.32
2022-08-05T22:05:01.967Z,101538.75
2022-08-05T22:07:40.436Z,101541.35
2022-08-05T22:10:26.888Z,101539.55
2022-08-05T22:12:57.419Z,101541.96
2022-08-05T22:16:00.286Z,101544.31
2022-08-05T22:18:14.353Z,101547.91
2022-08-05T22:20:41.834Z,101546.46
2022-08-05T22:24:00.948Z,101543.63
2022-08-05T22:26:35.508Z,101547.79
2022-08-05T22:29:03.658Z,101554.12
2022-08-05T22:31:31.625Z,101555.35
2022-08-05T22:34:12.871Z,101554.86
2022-08-05T22:36:48.132Z,101554.36
2022-08-05T22:39:19.831Z,101557.19
2022-08-05T22:42:09.875Z,101559.85
2022-08-05T22:44:36.834Z,101558.27
2022-08-05T22:47:04.969Z,101557.51
2022-08-05T22:50:20.742Z,101561.24
2022-08-05T22:52:30.211Z,101565.98
2022-08-05T22:54:59.892Z,101571.49
2022-08-05T22:57:27.158Z,101574.77
2022-08-05T23:00:07.933Z,101580.66
2022-08-05T23:02:40.025Z,101584.65
2022-08-05T23:05:14.853Z,101583.80
2022-08-05T23:07:48.342Z,101586.92
2022-08-05T23:10:19.651Z,101587.16
2022-08-05T23:12:51.716Z,101590.02
2022-08-05T23:15:22.062Z,101587.09
2022-08-05T23:18:00.452Z,101586.73
2022-08-05T23:20:32.334Z,101593.52
2022-08-05T23:23:00.089Z,101592.52
2022-08-05T23:25:52.100Z,101591.91
2022-08-05T23:28:15.785Z,101596.48
2022-08-05T23:30:53.310Z,101595.75
2022-08-05T23:33:26.346Z,101597.69
2022-08-05T23:36:10.010Z,101601.85
2022-08-05T23:38:37.394Z,101602.44
2022-08-05T23:41:06.964Z,101604.95
2022-08-05T23:43:37.220Z,101605.12
2022-08-05T23:46:22.262Z,101611.55
2022-08-05T23:49:00.568Z,101611.45
2022-08-05T23:51:53.486Z,101614.88
2022-08-05T23:54:30.166Z,101622.38
2022-08-05T23:57:04.225Z,101626.58
